Time;durP1;ratioP1;P1;durP2;ratioP2;P2;SDS_P1;SDS_P2;PMS_P1;PMS_P2;Temp;Humidity;BMP_temperature;BMP_pressure;BME280_temperature;BME280_humidity;BME280_pressure;Samples;Min_cycle;Max_cycle;Signal;HPM_P1;HPM_P2
2023/09/11 00:01:34;;;;;;;10.80;6.85;;;;;;;17.26;100.00;100677.41;5237220;28;20032;-76
2023/09/11 00:04:06;;;;;;;17.55;6.72;;;;;;;17.25;100.00;100678.34;5239153;28;20131;-76
2023/09/11 00:06:37;;;;;;;9.07;6.63;;;;;;;17.03;100.00;100680.59;5238839;28;20089;-77
2023/09/11 00:09:07;;;;;;;8.32;6.28;;;;;;;17.08;100.00;100678.53;5239485;28;20029;-77
2023/09/11 00:11:37;;;;;;;11.35;6.05;;;;;;;17.23;100.00;100675.81;5235719;28;20030;-76
2023/09/11 00:14:08;;;;;;;7.93;5.25;;;;;;;17.21;100.00;100676.84;5239338;28;20020;-74
2023/09/11 00:16:39;;;;;;;7.93;5.72;;;;;;;17.23;100.00;100669.66;5238588;28;20036;-77
2023/09/11 00:19:11;;;;;;;10.85;5.45;;;;;;;17.18;100.00;100664.66;5238128;28;20032;-75
2023/09/11 00:21:41;;;;;;;7.95;5.03;;;;;;;17.19;100.00;100665.53;5238195;28;20024;-76
2023/09/11 00:24:12;;;;;;;6.43;4.88;;;;;;;17.25;100.00;100665.13;5238946;28;20035;-77
2023/09/11 00:26:42;;;;;;;9.50;5.88;;;;;;;16.99;100.00;100660.59;5220327;28;20030;-77
2023/09/11 00:29:12;;;;;;;8.75;5.63;;;;;;;17.10;100.00;100652.84;5238213;28;20159;-76
2023/09/11 00:31:43;;;;;;;8.35;5.65;;;;;;;17.11;100.00;100655.41;5238065;28;20033;-77
2023/09/11 00:34:13;;;;;;;11.20;6.22;;;;;;;16.99;100.00;100640.31;5237805;28;20405;-75
2023/09/11 00:36:43;;;;;;;8.13;5.75;;;;;;;16.97;100.00;100654.56;5238361;28;20473;-77
2023/09/11 00:39:14;;;;;;;9.88;5.68;;;;;;;16.86;100.00;100649.06;5237052;28;20036;-74
2023/09/11 00:41:44;;;;;;;9.52;5.50;;;;;;;16.95;100.00;100645.91;5231061;28;20486;-76
2023/09/11 00:44:15;;;;;;;7.22;5.72;;;;;;;16.97;100.00;100644.00;5230771;28;20036;-76
2023/09/11 00:46:45;;;;;;;9.88;5.85;;;;;;;16.96;100.00;100647.59;5219976;28;20060;-77
2023/09/11 00:49:18;;;;;;;9.82;5.10;;;;;;;16.90;100.00;100640.03;5254156;22;20273;-72
2023/09/11 00:51:50;;;;;;;9.55;5.40;;;;;;;16.92;100.00;100641.63;5194715;28;20036;-72
2023/09/11 00:54:23;;;;;;;8.95;5.97;;;;;;;16.96;100.00;100642.31;5215783;28;20043;-72
2023/09/11 00:56:53;;;;;;;12.45;6.60;;;;;;;16.71;100.00;100635.97;5217007;28;20025;-73
2023/09/11 00:59:24;;;;;;;10.82;5.88;;;;;;;16.73;100.00;100634.91;5195611;28;20386;-72
2023/09/11 01:01:54;;;;;;;8.52;6.30;;;;;;;16.74;100.00;100635.78;5213154;28;20582;-71
2023/09/11 01:04:24;;;;;;;10.52;5.78;;;;;;;16.86;100.00;100630.59;5210369;28;20028;-72
2023/09/11 01:06:55;;;;;;;8.07;5.90;;;;;;;16.78;100.00;100627.59;5214450;28;20482;-72
2023/09/11 01:09:25;;;;;;;10.73;6.03;;;;;;;16.77;100.00;100633.81;5214533;28;20064;-72
2023/09/11 01:11:55;;;;;;;11.07;5.55;;;;;;;16.77;100.00;100621.44;5195612;28;20035;-72
2023/09/11 01:14:27;;;;;;;8.10;5.68;;;;;;;16.82;100.00;100624.63;5199171;28;20107;-72
2023/09/11 01:17:17;;;;;;;8.63;5.90;;;;;;;16.70;100.00;100621.88;5217308;28;20474;-72
2023/09/11 01:19:47;;;;;;;11.55;6.32;;;;;;;16.48;100.00;100620.59;5212828;28;20517;-72
2023/09/11 01:22:38;;;;;;;10.97;6.30;;;;;;;16.50;100.00;100608.16;5212723;28;20056;-72
2023/09/11 01:25:39;;;;;;;7.07;5.30;;;;;;;16.61;100.00;100614.53;5214629;28;20266;-72
2023/09/11 01:28:43;;;;;;;7.65;5.32;;;;;;;16.55;100.00;100611.41;5212862;28;20029;-72
2023/09/11 01:31:16;;;;;;;9.00;5.47;;;;;;;16.44;100.00;100612.06;5214455;28;20148;-71
2023/09/11 01:33:59;;;;;;;9.98;6.00;;;;;;;16.33;100.00;100614.41;5217040;28;20282;-72
2023/09/11 01:36:29;;;;;;;9.45;5.97;;;;;;;16.44;100.00;100617.31;5209136;28;20566;-71
2023/09/11 01:39:00;;;;;;;8.70;5.43;;;;;;;16.44;100.00;100617.31;5211264;28;20082;-72
2023/09/11 01:41:34;;;;;;;9.05;5.88;;;;;;;16.34;100.00;100617.88;5212612;28;20090;-72
2023/09/11 01:44:13;;;;;;;14.20;5.90;;;;;;;16.22;100.00;100622.09;5211312;28;20056;-72
2023/09/11 01:46:45;;;;;;;11.00;6.70;;;;;;;16.36;100.00;100616.91;5212187;28;20029;-72
2023/09/11 01:49:17;;;;;;;9.30;6.38;;;;;;;16.40;100.00;100618.41;5198532;28;20374;-72
2023/09/11 01:51:49;;;;;;;9.10;5.97;;;;;;;16.43;100.00;100614.75;5215976;28;20045;-72
2023/09/11 01:54:20;;;;;;;9.68;5.72;;;;;;;16.29;100.00;100619.97;5215168;28;20552;-72
2023/09/11 01:56:50;;;;;;;9.23;5.30;;;;;;;16.33;100.00;100614.41;5214389;28;20032;-72
2023/09/11 01:59:21;;;;;;;7.82;5.30;;;;;;;16.36;100.00;100618.72;5210116;28;20017;-72
2023/09/11 02:01:51;;;;;;;6.20;4.88;;;;;;;16.41;100.00;100616.66;5210351;28;20621;-72
2023/09/11 02:04:22;;;;;;;8.13;4.93;;;;;;;16.31;100.00;100612.81;5213702;28;20441;-72
2023/09/11 02:06:52;;;;;;;7.53;4.05;;;;;;;16.33;100.00;100616.19;5216276;28;20029;-72
2023/09/11 02:09:23;;;;;;;6.07;4.10;;;;;;;16.42;100.00;100613.06;5213957;28;20201;-72
2023/09/11 02:11:53;;;;;;;5.85;3.70;;;;;;;16.44;100.00;100613.81;5200674;28;20035;-72
2023/09/11 02:14:23;;;;;;;6.53;4.55;;;;;;;16.27;100.00;100606.00;5216261;28;20099;-72
2023/09/11 02:16:54;;;;;;;5.85;4.45;;;;;;;16.31;100.00;100595.19;5217484;28;20033;-72
2023/09/11 02:19:24;;;;;;;7.68;5.05;;;;;;;16.16;100.00;100596.09;5198038;28;20021;-72
2023/09/11 02:21:54;;;;;;;6.28;4.13;;;;;;;16.07;100.00;100599.25;5217327;28;20503;-72
2023/09/11 02:24:25;;;;;;;6.53;4.70;;;;;;;15.98;100.00;100599.78;5216674;28;20556;-72
2023/09/11 02:26:56;;;;;;;6.78;4.43;;;;;;;16.02;100.00;100597.84;5219657;28;20053;-72
2023/09/11 02:29:27;;;;;;;8.90;4.18;;;;;;;16.00;100.00;100599.69;5216203;28;20021;-72
2023/09/11 02:31:57;;;;;;;6.75;3.80;;;;;;;16.16;100.00;100600.50;5199376;28;20079;-71
2023/09/11 02:34:27;;;;;;;5.97;3.80;;;;;;;16.23;100.00;100596.59;5218500;28;20041;-72
2023/09/11 02:36:57;;;;;;;7.13;3.60;;;;;;;16.11;100.00;100595.50;5219925;28;20029;-72
2023/09/11 02:39:28;;;;;;;8.15;3.65;;;;;;;16.05;100.00;100592.38;5197197;28;20032;-70
2023/09/11 02:41:58;;;;;;;4.55;3.35;;;;;;;16.09;100.00;100597.41;5217534;28;20051;-73
2023/09/11 02:44:29;;;;;;;5.88;4.15;;;;;;;16.13;100.00;100590.13;5196129;28;20024;-71
2023/09/11 02:46:59;;;;;;;5.65;3.45;;;;;;;16.20;100.00;100588.84;5216463;28;20173;-72
2023/09/11 02:49:29;;;;;;;6.05;3.30;;;;;;;16.24;100.00;100593.84;5214327;28;20025;-71
2023/09/11 02:52:00;;;;;;;7.38;3.13;;;;;;;16.14;100.00;100597.97;5217910;28;20040;-72
2023/09/11 02:54:30;;;;;;;4.82;3.20;;;;;;;16.18;100.00;100596.84;5199132;28;20210;-72
2023/09/11 02:57:00;;;;;;;4.53;2.97;;;;;;;16.11;100.00;100595.50;5218746;28;20052;-72
2023/09/11 02:59:34;;;;;;;4.90;3.08;;;;;;;16.03;100.00;100592.44;5216861;28;20027;-71
2023/09/11 03:02:05;;;;;;;7.97;3.20;;;;;;;15.95;100.00;100589.41;5217468;28;20107;-72
2023/09/11 03:04:35;;;;;;;5.13;3.17;;;;;;;15.92;100.00;100592.25;5217221;28;20452;-72
2023/09/11 03:07:05;;;;;;;4.70;3.47;;;;;;;16.02;100.00;100597.84;5219728;28;20021;-72
2023/09/11 03:09:36;;;;;;;4.28;3.42;;;;;;;16.03;100.00;100591.63;5217972;28;20586;-72
2023/09/11 03:12:06;;;;;;;7.15;4.10;;;;;;;16.06;100.00;100589.63;5217485;28;20064;-72
2023/09/11 03:14:36;;;;;;;4.97;3.15;;;;;;;15.98;100.00;100589.25;5216881;28;20566;-72
2023/09/11 03:17:07;;;;;;;4.70;3.10;;;;;;;15.93;100.00;100580.75;5200459;28;20029;-72
2023/09/11 03:19:37;;;;;;;5.03;3.15;;;;;;;15.90;100.00;100583.53;5214738;28;20033;-72
2023/09/11 03:22:08;;;;;;;4.38;2.67;;;;;;;15.95;100.00;100584.16;5217872;28;20060;-72
2023/09/11 03:24:38;;;;;;;8.65;3.03;;;;;;;15.88;100.00;100574.88;5215670;28;20033;-72
2023/09/11 03:27:08;;;;;;;4.93;2.58;;;;;;;15.85;100.00;100574.22;5218931;28;20108;-72
2023/09/11 03:29:38;;;;;;;3.20;2.67;;;;;;;15.72;100.00;100574.03;5215684;28;20248;-72
2023/09/11 03:32:09;;;;;;;3.55;2.63;;;;;;;15.65;100.00;100577.97;5215575;28;20033;-72
2023/09/11 03:34:39;;;;;;;3.35;2.30;;;;;;;15.64;100.00;100583.31;5213755;28;20036;-72
2023/09/11 03:37:09;;;;;;;2.90;2.10;;;;;;;15.63;100.00;100573.72;5217580;28;20025;-72
2023/09/11 03:39:40;;;;;;;4.68;2.47;;;;;;;15.67;100.00;100562.91;5213870;28;20056;-72
2023/09/11 03:42:10;;;;;;;2.78;2.20;;;;;;;15.74;100.00;100564.25;5217278;28;20063;-72
2023/09/11 03:44:40;;;;;;;5.43;2.70;;;;;;;15.67;100.00;100567.34;5215877;28;20087;-72
2023/09/11 03:47:11;;;;;;;3.92;2.30;;;;;;;15.64;100.00;100567.50;5218909;28;20025;-72
2023/09/11 03:49:42;;;;;;;4.38;1.80;;;;;;;15.70;100.00;100565.38;5198567;28;20483;-72
2023/09/11 03:52:12;;;;;;;5.25;3.20;;;;;;;15.54;100.00;100564.53;5217842;28;20029;-72
2023/09/11 03:54:42;;;;;;;6.25;3.17;;;;;;;15.51;100.00;100564.72;5214321;28;20509;-72
2023/09/11 03:57:13;;;;;;;6.72;3.75;;;;;;;15.55;100.00;100565.41;5217220;28;20024;-72
2023/09/11 03:59:43;;;;;;;8.57;4.32;;;;;;;15.55;100.00;100566.22;5216420;28;20064;-72
2023/09/11 04:02:13;;;;;;;7.15;4.10;;;;;;;15.64;100.00;100551.69;5217178;28;20083;-72
2023/09/11 04:04:43;;;;;;;6.43;4.40;;;;;;;15.57;100.00;100553.81;5216736;28;20394;-72
2023/09/11 04:07:14;;;;;;;7.15;4.65;;;;;;;15.54;100.00;100548.72;5217651;28;20024;-72
2023/09/11 04:09:44;;;;;;;7.88;4.18;;;;;;;15.56;100.00;100552.13;5215411;28;20049;-72
2023/09/11 04:12:16;;;;;;;9.15;4.22;;;;;;;15.46;100.00;100545.69;5216919;28;20078;-72
2023/09/11 04:14:46;;;;;;;6.35;4.20;;;;;;;15.52;100.00;100537.44;5216441;28;20072;-72
2023/09/11 04:17:17;;;;;;;6.05;4.20;;;;;;;15.53;100.00;100543.56;5198993;28;20013;-72
2023/09/11 04:19:47;;;;;;;6.82;3.70;;;;;;;15.51;100.00;100548.91;5212389;28;20090;-73
2023/09/11 04:22:17;;;;;;;6.53;4.07;;;;;;;15.56;100.00;100536.31;5219099;28;20052;-72
2023/09/11 04:24:47;;;;;;;21.05;11.10;;;;;;;15.59;100.00;100536.16;5217818;28;20498;-72
2023/09/11 04:27:18;;;;;;;24.08;13.43;;;;;;;15.55;100.00;100550.44;5220288;28;20020;-72
2023/09/11 04:29:48;;;;;;;19.90;10.60;;;;;;;15.47;100.00;100541.25;5197554;28;20103;-71
2023/09/11 04:32:20;;;;;;;11.98;7.15;;;;;;;15.59;100.00;100541.44;5198169;28;20036;-72
2023/09/11 04:34:51;;;;;;;8.50;4.90;;;;;;;15.58;100.00;100539.75;5215465;28;20036;-72
2023/09/11 04:37:21;;;;;;;7.80;5.00;;;;;;;15.65;100.00;100535.81;5200330;28;20028;-72
2023/09/11 04:39:51;;;;;;;6.97;4.32;;;;;;;15.55;100.00;100541.69;5215922;28;20021;-71
2023/09/11 04:42:22;;;;;;;6.60;3.58;;;;;;;15.53;100.00;100547.03;5218020;28;20307;-72
2023/09/11 04:44:58;;;;;;;5.20;3.78;;;;;;;15.54;100.00;100538.19;5215868;28;20033;-72
2023/09/11 04:47:32;;;;;;;5.85;3.45;;;;;;;15.46;100.00;100539.56;5216693;28;20032;-71
2023/09/11 04:50:03;;;;;;;4.82;3.22;;;;;;;15.45;100.00;100544.00;5214712;28;20021;-72
2023/09/11 04:52:33;;;;;;;8.63;3.08;;;;;;;15.43;100.00;100550.28;5198393;28;20044;-71
2023/09/11 04:55:04;;;;;;;4.63;2.90;;;;;;;15.41;100.00;100542.47;5215933;28;20047;-72
2023/09/11 04:57:36;;;;;;;5.63;3.13;;;;;;;15.51;100.00;100550.72;5215108;28;20025;-72
2023/09/11 05:00:11;;;;;;;4.65;2.65;;;;;;;15.53;100.00;100543.56;5218268;28;20021;-72
2023/09/11 05:02:42;;;;;;;4.18;2.97;;;;;;;15.54;100.00;100550.53;5196166;28;20037;-72
2023/09/11 05:05:12;;;;;;;4.43;2.65;;;;;;;15.52;100.00;100545.34;5217902;28;20374;-72
2023/09/11 05:07:42;;;;;;;3.35;2.53;;;;;;;15.64;100.00;100541.16;5218247;28;20036;-72
2023/09/11 05:10:14;;;;;;;3.42;2.83;;;;;;;15.72;100.00;100542.41;5218124;28;20450;-72
2023/09/11 05:12:46;;;;;;;3.90;2.50;;;;;;;15.80;100.00;100549.88;5220181;28;20103;-72
2023/09/11 05:15:16;;;;;;;4.00;2.72;;;;;;;15.60;100.00;100552.81;5199449;28;20716;-72
2023/09/11 05:17:46;;;;;;;3.97;2.63;;;;;;;15.73;100.00;100559.94;5216262;28;20186;-72
2023/09/11 05:20:17;;;;;;;4.00;3.22;;;;;;;15.70;100.00;100544.28;5219596;28;20029;-72
2023/09/11 05:22:47;;;;;;;4.97;3.55;;;;;;;15.72;100.00;100554.75;5220285;28;20085;-72
2023/09/11 05:25:20;;;;;;;3.55;2.70;;;;;;;15.86;100.00;100557.47;5199835;28;20059;-72
2023/09/11 05:27:50;;;;;;;3.28;2.50;;;;;;;16.05;100.00;100560.75;5217016;28;20367;-72
2023/09/11 05:30:20;;;;;;;2.30;1.70;;;;;;;16.05;100.00;100561.56;5203035;28;20277;-72
2023/09/11 05:32:52;;;;;;;3.13;2.03;;;;;;;16.08;100.00;100561.38;5217926;28;20768;-72
2023/09/11 05:35:22;;;;;;;3.55;2.85;;;;;;;15.92;100.00;100557.97;5218219;28;20029;-72
2023/09/11 05:37:52;;;;;;;4.88;3.70;;;;;;;15.93;100.00;100559.66;5215871;28;20029;-72
2023/09/11 05:40:23;;;;;;;6.88;4.70;;;;;;;15.96;100.00;100555.97;5219649;28;20021;-72
2023/09/11 05:42:53;;;;;;;6.43;4.80;;;;;;;16.13;100.00;100558.50;5219838;28;20162;-72
2023/09/11 05:45:23;;;;;;;7.57;5.22;;;;;;;15.97;100.00;100555.91;5220238;28;20318;-72
2023/09/11 05:47:53;;;;;;;8.68;4.88;;;;;;;16.03;100.00;100558.19;5220713;28;20035;-73
2023/09/11 05:50:24;;;;;;;8.18;5.10;;;;;;;16.06;100.00;100551.88;5220815;28;20017;-72
2023/09/11 05:52:54;;;;;;;6.45;4.70;;;;;;;16.08;100.00;100550.84;5202288;28;20040;-72
2023/09/11 05:55:25;;;;;;;9.30;4.80;;;;;;;16.10;100.00;100556.91;5221254;28;20576;-72
2023/09/11 05:57:55;;;;;;;8.00;5.15;;;;;;;16.21;100.00;100556.28;5220264;28;20025;-72
2023/09/11 06:00:26;;;;;;;8.35;5.63;;;;;;;16.23;100.00;100549.94;5221021;28;20052;-72
2023/09/11 06:02:56;;;;;;;11.20;6.63;;;;;;;16.43;100.00;100557.59;5202307;28;20028;-72
2023/09/11 06:05:28;;;;;;;9.85;6.25;;;;;;;16.47;100.00;100545.91;5203500;28;20513;-72
2023/09/11 06:07:58;;;;;;;11.23;6.75;;;;;;;16.76;100.00;100550.25;5203179;28;20028;-71
2023/09/11 06:10:29;;;;;;;10.85;7.93;;;;;;;16.86;100.00;100551.38;5203291;28;20025;-71
2023/09/11 06:13:00;;;;;;;13.00;8.50;;;;;;;17.02;100.00;100552.16;5222699;28;20064;-72
2023/09/11 06:15:30;;;;;;;14.48;8.43;;;;;;;17.11;100.00;100546.31;5205085;28;20021;-71
2023/09/11 06:18:00;;;;;;;12.70;8.93;;;;;;;17.28;100.00;100551.38;5221453;28;20021;-72
2023/09/11 06:20:31;;;;;;;17.85;10.82;;;;;;;17.54;100.00;100550.56;5217077;28;20021;-73
2023/09/11 06:23:02;;;;;;;16.00;10.63;;;;;;;17.70;100.00;100551.28;5218457;28;20109;-72
2023/09/11 06:25:32;;;;;;;15.93;10.77;;;;;;;17.62;100.00;100548.31;5218294;28;20028;-72
2023/09/11 06:28:03;;;;;;;17.98;12.05;;;;;;;17.86;100.00;100555.47;5223916;28;20113;-72
2023/09/11 06:30:34;;;;;;;18.75;12.48;;;;;;;18.17;100.00;100556.94;5222914;28;20115;-72
2023/09/11 06:33:04;;;;;;;20.05;11.98;;;;;;;18.28;100.00;100546.50;5210143;28;20035;-72
2023/09/11 06:35:34;;;;;;;18.50;12.63;;;;;;;18.55;100.00;100552.59;5221014;28;20120;-72
2023/09/11 06:38:04;;;;;;;17.55;12.40;;;;;;;18.62;100.00;100549.41;5204231;28;20021;-72
2023/09/11 06:40:35;;;;;;;28.63;12.18;;;;;;;18.75;100.00;100545.78;5218210;28;20071;-72
2023/09/11 06:43:05;;;;;;;20.35;11.93;;;;;;;18.90;100.00;100550.03;5218246;28;20474;-72
2023/09/11 06:45:35;;;;;;;16.63;11.10;;;;;;;18.83;100.00;100555.84;5217655;28;20035;-72
2023/09/11 06:48:06;;;;;;;19.95;12.43;;;;;;;18.98;100.00;100542.41;5219515;28;20078;-72
2023/09/11 06:50:38;;;;;;;15.07;10.35;;;;;;;19.21;100.00;100536.34;5203252;28;20071;-72
2023/09/11 06:53:09;;;;;;;19.90;11.77;;;;;;;19.58;100.00;100526.59;5218117;28;20056;-72
2023/09/11 06:55:44;;;;;;;20.38;12.32;;;;;;;19.56;100.00;100524.03;5218463;28;20029;-72
2023/09/11 06:58:15;;;;;;;18.38;10.52;;;;;;;20.37;100.00;100517.03;5219625;28;20501;-73
2023/09/11 07:00:46;;;;;;;13.30;9.60;;;;;;;22.43;100.00;100515.97;5201071;28;20051;-71
2023/09/11 07:03:19;;;;;;;13.68;9.63;;;;;;;24.36;90.24;100517.09;5201356;28;20052;-73
2023/09/11 07:05:51;;;;;;;11.18;7.65;;;;;;;25.21;85.21;100505.31;5220758;28;20119;-73
2023/09/11 07:08:21;;;;;;;14.25;7.95;;;;;;;25.81;79.39;100515.38;5223966;28;20021;-73
2023/09/11 07:10:54;;;;;;;10.65;6.85;;;;;;;27.53;75.18;100511.56;5217840;28;20228;-73
2023/09/11 07:13:24;;;;;;;10.25;6.65;;;;;;;27.95;72.92;100509.63;5217638;28;20415;-73
2023/09/11 07:15:56;;;;;;;11.20;6.30;;;;;;;28.82;69.95;100502.53;5196385;28;20040;-73
2023/09/11 07:18:26;;;;;;;9.73;6.53;;;;;;;28.29;73.97;100515.69;5199622;28;20776;-73
2023/09/11 07:20:57;;;;;;;11.23;6.28;;;;;;;27.69;76.08;100510.75;5216624;28;20025;-74
2023/09/11 07:23:29;;;;;;;8.77;5.55;;;;;;;29.77;67.99;100503.19;5199875;28;20025;-73
2023/09/11 07:25:59;;;;;;;9.43;5.57;;;;;;;30.00;66.14;100506.72;5219228;28;20158;-73
2023/09/11 07:28:29;;;;;;;12.00;5.70;;;;;;;29.13;70.49;100503.47;5202114;28;20117;-73
2023/09/11 07:31:00;;;;;;;7.32;4.95;;;;;;;30.87;66.61;100503.25;5220317;28;20290;-73
2023/09/11 07:33:30;;;;;;;11.00;5.27;;;;;;;29.05;72.12;100514.28;5220270;28;20029;-73
2023/09/11 07:36:00;;;;;;;9.80;5.07;;;;;;;29.85;70.99;100497.72;5217676;28;20389;-74
2023/09/11 07:38:33;;;;;;;8.07;5.43;;;;;;;30.01;67.64;100501.16;5200412;28;20029;-73
2023/09/11 07:41:03;;;;;;;9.50;5.25;;;;;;;30.21;68.19;100504.22;5202021;28;20268;-73
2023/09/11 07:43:33;;;;;;;7.17;5.10;;;;;;;30.57;68.30;100505.25;5200215;28;20397;-73
2023/09/11 07:46:03;;;;;;;12.63;5.23;;;;;;;30.86;67.61;100490.75;5219744;28;20029;-73
2023/09/11 07:48:35;;;;;;;10.75;4.60;;;;;;;30.99;67.76;100495.53;5199815;28;20289;-73
2023/09/11 07:51:05;;;;;;;7.20;4.60;;;;;;;29.40;70.07;100508.41;5200570;28;20281;-74
2023/09/11 07:53:35;;;;;;;9.87;4.87;;;;;;;30.12;69.38;100494.53;5218498;28;20035;-73
2023/09/11 07:56:07;;;;;;;7.23;4.07;;;;;;;30.52;69.77;100497.69;5206148;28;20628;-73
2023/09/11 07:58:38;;;;;;;8.85;4.18;;;;;;;31.59;65.92;100485.28;5225201;28;20274;-74
2023/09/11 08:01:08;;;;;;;7.25;4.15;;;;;;;31.49;64.98;100488.31;5201104;28;20029;-74
2023/09/11 08:03:38;;;;;;;10.27;4.23;;;;;;;31.57;64.08;100488.19;5203299;28;20025;-74
2023/09/11 08:06:08;;;;;;;10.20;3.57;;;;;;;32.83;61.30;100490.03;5220273;28;20618;-73
2023/09/11 08:08:39;;;;;;;8.30;4.30;;;;;;;32.26;62.77;100492.06;5196683;28;20090;-74
2023/09/11 08:11:15;;;;;;;6.20;3.95;;;;;;;33.01;63.17;100491.19;5217574;28;20035;-74
2023/09/11 08:13:46;;;;;;;10.13;4.15;;;;;;;33.00;61.46;100492.22;5225586;28;20425;-74
2023/09/11 08:16:16;;;;;;;10.00;3.88;;;;;;;33.45;60.83;100484.31;5218626;28;20036;-74
2023/09/11 08:18:47;;;;;;;8.48;4.50;;;;;;;32.06;63.84;100483.72;5220457;28;20535;-73
2023/09/11 08:21:19;;;;;;;7.60;3.73;;;;;;;31.64;64.39;100481.00;5215921;28;20025;-74
2023/09/11 08:23:49;;;;;;;5.90;3.75;;;;;;;31.51;64.17;100475.44;5217539;28;20021;-74
2023/09/11 08:26:20;;;;;;;10.48;3.88;;;;;;;31.68;64.28;100476.91;5199010;28;20029;-74
2023/09/11 08:28:50;;;;;;;9.97;3.80;;;;;;;33.29;61.83;100471.13;5213965;28;20390;-74
2023/09/11 08:31:20;;;;;;;6.83;4.13;;;;;;;31.96;62.55;100475.13;5218006;28;20383;-74
2023/09/11 08:33:51;;;;;;;8.27;3.70;;;;;;;33.12;59.89;100480.59;5217325;28;20040;-74
2023/09/11 08:36:22;;;;;;;7.30;3.70;;;;;;;32.86;60.70;100468.78;5200122;28;20028;-74
2023/09/11 08:38:52;;;;;;;4.65;3.40;;;;;;;34.54;58.11;100467.59;5216701;28;20504;-74
2023/09/11 08:41:24;;;;;;;9.30;3.42;;;;;;;35.10;57.82;100456.00;5216118;28;20052;-74
2023/09/11 08:43:54;;;;;;;12.65;3.78;;;;;;;34.43;58.01;100463.66;5216858;28;20509;-74
2023/09/11 08:46:30;;;;;;;10.63;3.50;;;;;;;34.86;57.31;100464.84;5215242;28;20029;-74
2023/09/11 08:49:02;;;;;;;7.32;3.40;;;;;;;36.42;54.74;100462.13;5214672;28;20085;-73
2023/09/11 08:51:37;;;;;;;10.20;3.60;;;;;;;34.97;56.15;100456.84;5217208;28;20105;-75
2023/09/11 08:54:09;;;;;;;8.77;3.58;;;;;;;34.56;58.27;100462.78;5217517;28;20048;-74
2023/09/11 08:56:40;;;;;;;6.90;3.30;;;;;;;33.83;60.69;100463.78;5214737;28;20032;-73
2023/09/11 08:59:15;;;;;;;6.88;3.00;;;;;;;34.89;56.95;100455.44;5200279;28;20021;-74
2023/09/11 09:01:47;;;;;;;5.70;3.33;;;;;;;34.56;58.08;100449.22;5216721;28;20032;-74
2023/09/11 09:04:19;;;;;;;8.35;3.58;;;;;;;34.59;57.89;100448.78;5217168;28;20186;-74
2023/09/11 09:06:50;;;;;;;6.85;3.28;;;;;;;34.79;57.80;100446.88;5217111;28;20053;-75
2023/09/11 09:09:21;;;;;;;7.82;3.40;;;;;;;34.62;58.17;100448.34;5196700;28;20067;-75
2023/09/11 09:11:52;;;;;;;6.07;3.50;;;;;;;34.46;58.10;100446.94;5214127;28;20029;-74
2023/09/11 09:14:27;;;;;;;10.45;3.30;;;;;;;34.64;57.95;100441.66;5214108;28;20444;-74
2023/09/11 09:16:57;;;;;;;10.55;3.58;;;;;;;34.28;58.18;100440.47;5216266;28;21018;-75
2023/09/11 09:19:28;;;;;;;9.45;3.60;;;;;;;33.79;60.14;100440.84;5215680;28;20033;-74
2023/09/11 09:22:07;;;;;;;8.13;3.10;;;;;;;33.17;62.71;100452.91;5217286;28;20043;-74
2023/09/11 09:24:47;;;;;;;8.90;3.20;;;;;;;32.48;63.59;100443.13;5217429;28;20025;-74
2023/09/11 09:27:19;;;;;;;8.32;3.75;;;;;;;32.12;64.17;100441.53;5196595;28;20060;-74
2023/09/11 09:29:49;;;;;;;11.32;3.47;;;;;;;30.91;64.24;100437.06;5198052;28;20273;-73
2023/09/11 09:32:19;;;;;;;14.65;3.42;;;;;;;31.20;64.51;100438.91;5218168;28;20028;-74
2023/09/11 09:34:53;;;;;;;13.52;3.63;;;;;;;31.56;63.22;100432.44;5213691;28;20059;-73
2023/09/11 09:37:24;;;;;;;14.27;3.15;;;;;;;31.09;63.85;100426.69;5217281;28;20025;-73
2023/09/11 09:39:54;;;;;;;7.00;3.45;;;;;;;31.27;65.00;100429.00;5216589;28;20272;-74
2023/09/11 09:42:37;;;;;;;16.13;3.50;;;;;;;30.96;65.79;100423.81;5214743;28;20021;-74
2023/09/11 09:45:08;;;;;;;9.98;3.17;;;;;;;30.93;66.25;100423.34;5214018;28;20020;-73
2023/09/11 09:47:38;;;;;;;15.02;3.47;;;;;;;30.64;65.22;100414.44;5211119;28;20086;-74
2023/09/11 09:50:08;;;;;;;12.83;3.57;;;;;;;30.81;64.92;100418.63;5213765;28;20099;-73
2023/09/11 09:52:43;;;;;;;14.57;3.42;;;;;;;30.36;65.57;100416.06;5216293;28;20279;-74
2023/09/11 09:55:14;;;;;;;13.80;3.72;;;;;;;30.48;66.94;100414.59;5212624;28;20065;-74
2023/09/11 09:57:45;;;;;;;16.73;3.80;;;;;;;30.35;66.27;100409.00;5195510;28;20083;-73
2023/09/11 10:00:16;;;;;;;12.85;4.30;;;;;;;30.20;65.50;100410.81;5216893;28;20100;-74
2023/09/11 10:02:47;;;;;;;12.05;3.83;;;;;;;30.43;68.70;100411.63;5197382;28;20116;-74
2023/09/11 10:05:20;;;;;;;12.32;3.83;;;;;;;30.41;67.76;100409.09;5216176;28;20029;-73
2023/09/11 10:07:51;;;;;;;16.20;3.55;;;;;;;30.13;67.19;100399.97;5199645;28;20036;-74
2023/09/11 10:10:22;;;;;;;15.23;4.07;;;;;;;29.92;68.88;100407.84;5218561;28;20025;-74
2023/09/11 10:13:09;;;;;;;13.05;3.80;;;;;;;29.83;66.91;100394.63;5222441;28;20106;-73
2023/09/11 10:15:42;;;;;;;12.75;3.70;;;;;;;29.71;69.52;100393.41;5196497;28;20391;-74
2023/09/11 10:18:13;;;;;;;13.07;4.95;;;;;;;29.74;68.47;100388.47;5213214;28;20029;-74
2023/09/11 10:20:43;;;;;;;14.27;3.75;;;;;;;29.59;68.64;100384.88;5215820;28;20142;-72
2023/09/11 10:23:13;;;;;;;8.15;3.17;;;;;;;29.82;68.77;100387.56;5221983;28;20239;-73
2023/09/11 10:25:46;;;;;;;12.50;3.60;;;;;;;29.50;69.55;100388.66;5200605;28;20016;-73
2023/09/11 10:28:33;;;;;;;8.00;3.22;;;;;;;29.63;71.08;100377.28;5200733;28;20275;-74
2023/09/11 10:31:14;;;;;;;14.40;3.30;;;;;;;29.81;69.02;100372.41;5218704;28;20320;-73
2023/09/11 10:33:48;;;;;;;13.10;3.30;;;;;;;29.92;68.92;100377.38;5224954;28;20512;-73
2023/09/11 10:36:22;;;;;;;8.20;3.17;;;;;;;29.77;67.41;100373.78;5225346;28;20073;-73
2023/09/11 10:38:56;;;;;;;12.82;3.78;;;;;;;29.70;68.69;100370.13;5221213;28;20393;-74
2023/09/11 10:41:26;;;;;;;13.15;3.70;;;;;;;29.82;69.76;100366.00;5220172;28;20378;-73
2023/09/11 10:43:57;;;;;;;18.75;3.78;;;;;;;29.83;68.82;100370.38;5218789;28;20028;-74
2023/09/11 10:46:31;;;;;;;10.77;3.35;;;;;;;29.72;69.13;100368.13;5217619;28;20074;-74
2023/09/11 10:49:15;;;;;;;20.23;3.47;;;;;;;29.71;67.81;100366.44;5198534;28;20048;-72
2023/09/11 10:51:47;;;;;;;9.77;3.00;;;;;;;29.72;67.91;100357.34;5215982;28;20036;-73
2023/09/11 10:54:22;;;;;;;19.55;3.42;;;;;;;29.61;69.84;100352.38;5201522;28;20029;-73
2023/09/11 10:56:55;;;;;;;11.32;3.08;;;;;;;29.66;68.33;100350.81;5221760;28;20035;-74
2023/09/11 10:59:25;;;;;;;19.77;3.25;;;;;;;29.73;66.89;100348.22;5222663;28;20064;-74
2023/09/11 11:01:56;;;;;;;9.43;2.90;;;;;;;29.74;68.22;100345.34;5220371;28;20053;-73
2023/09/11 11:04:31;;;;;;;8.95;3.00;;;;;;;29.67;67.48;100348.94;5218533;28;20458;-74
2023/09/11 11:07:02;;;;;;;20.00;3.80;;;;;;;29.71;66.48;100344.88;5218876;28;20033;-73
2023/09/11 11:09:34;;;;;;;8.15;3.00;;;;;;;29.78;68.34;100345.81;5216207;28;20033;-74
2023/09/11 11:12:13;;;;;;;12.35;3.40;;;;;;;29.78;68.89;100351.22;5215819;28;20029;-73
2023/09/11 11:15:19;;;;;;;12.40;3.00;;;;;;;29.80;67.83;100349.16;5217688;28;20032;-74
2023/09/11 11:18:13;;;;;;;10.05;2.83;;;;;;;29.64;68.10;100343.91;5194501;28;20028;-74
2023/09/11 11:21:05;;;;;;;12.10;2.97;;;;;;;29.59;67.88;100346.34;5212211;28;20021;-74
2023/09/11 11:23:55;;;;;;;14.25;3.30;;;;;;;29.68;66.72;100346.06;5217150;28;20048;-74
2023/09/11 11:26:27;;;;;;;9.93;2.78;;;;;;;29.76;66.73;100340.59;5197724;28;20440;-74
2023/09/11 11:28:58;;;;;;;7.15;2.70;;;;;;;29.52;66.46;100334.59;5215243;28;20482;-74
2023/09/11 11:31:30;;;;;;;10.88;3.00;;;;;;;29.55;65.81;100323.47;5215945;28;20036;-73
2023/09/11 11:34:01;;;;;;;10.70;3.10;;;;;;;29.56;67.02;100325.97;5218483;28;20053;-74
2023/09/11 11:36:31;;;;;;;12.75;2.78;;;;;;;29.56;67.56;100330.53;5198873;28;20075;-74
2023/09/11 11:39:03;;;;;;;8.57;3.13;;;;;;;29.45;69.19;100321.00;5219376;28;20371;-74